Time;durP1;ratioP1;P1;durP2;ratioP2;P2;SDS_P1;SDS_P2;PMS_P1;PMS_P2;Temp;Humidity;BMP_temperature;BMP_pressure;BME280_temperature;BME280_humidity;BME280_pressure;Samples;Min_cycle;Max_cycle;Signal;HPM_P1;HPM_P2
2022/07/08 00:02:14;;;;;;;;;;;;;;;16.57;93.92;99585.00;1705414;84;20398;-67
2022/07/08 00:04:42;;;;;;;;;;;;;;;16.57;94.29;99589.16;1705329;84;20099;-67
2022/07/08 00:07:09;;;;;;;;;;;;;;;16.56;94.33;99595.05;1705475;84;20420;-67
2022/07/08 00:09:36;;;;;;;;;;;;;;;16.55;94.55;99596.20;1705329;84;20449;-67
2022/07/08 00:12:03;;;;;;;;;;;;;;;16.51;94.90;99597.49;1705490;84;20652;-67
2022/07/08 00:14:30;;;;;;;;;;;;;;;16.49;95.15;99602.00;1705426;84;20158;-67
2022/07/08 00:16:58;;;;;;;;;;;;;;;16.49;95.22;99599.81;1697925;84;20092;-67
2022/07/08 00:19:25;;;;;;;;;;;;;;;16.48;95.55;99599.59;1689127;85;20129;-67
2022/07/08 00:21:52;;;;;;;;;;;;;;;16.48;96.12;99602.36;1689291;85;20084;-67
2022/07/08 00:24:18;;;;;;;;;;;;;;;16.46;96.39;99597.17;1678924;84;21151;-67
2022/07/08 00:26:45;;;;;;;;;;;;;;;16.46;96.83;99597.75;1664202;85;20416;-67
2022/07/08 00:29:11;;;;;;;;;;;;;;;16.45;96.99;99596.95;1701828;84;20101;-67
2022/07/08 00:31:38;;;;;;;;;;;;;;;16.45;96.83;99599.72;1701506;84;20183;-68
2022/07/08 00:34:04;;;;;;;;;;;;;;;16.44;97.02;99595.33;1701624;84;20415;-67
2022/07/08 00:36:31;;;;;;;;;;;;;;;16.43;97.34;99591.53;1701567;84;21153;-67
2022/07/08 00:38:58;;;;;;;;;;;;;;;16.41;97.43;99589.11;1701696;84;20120;-67
2022/07/08 00:41:24;;;;;;;;;;;;;;;16.38;97.37;99584.28;1701888;84;20113;-67
2022/07/08 00:43:51;;;;;;;;;;;;;;;16.36;97.47;99582.44;1701723;84;20124;-67
2022/07/08 00:46:17;;;;;;;;;;;;;;;16.35;97.77;99578.05;1701840;84;20140;-67
2022/07/08 00:48:43;;;;;;;;;;;;;;;16.35;97.81;99576.67;1701873;84;21148;-67
2022/07/08 00:51:12;;;;;;;;;;;;;;;16.31;97.60;99573.00;1701716;84;20145;-67
2022/07/08 00:53:40;;;;;;;;;;;;;;;16.28;97.66;99572.31;1701770;84;20084;-67
2022/07/08 00:56:07;;;;;;;;;;;;;;;16.25;97.69;99571.63;1702611;84;20703;-67
2022/07/08 00:58:34;;;;;;;;;;;;;;;16.21;97.85;99570.73;1703251;84;20085;-67
2022/07/08 01:01:02;;;;;;;;;;;;;;;16.18;97.60;99568.08;1703538;84;21163;-67
2022/07/08 01:03:28;;;;;;;;;;;;;;;16.14;97.35;99572.75;1703293;84;20097;-67
2022/07/08 01:05:55;;;;;;;;;;;;;;;16.12;97.35;99568.72;1703432;84;20415;-67
2022/07/08 01:08:22;;;;;;;;;;;;;;;16.09;97.20;99569.42;1703343;84;20125;-67
2022/07/08 01:10:48;;;;;;;;;;;;;;;16.04;97.03;99571.86;1703123;84;20097;-67
2022/07/08 01:13:15;;;;;;;;;;;;;;;15.98;96.86;99568.30;1685153;84;21153;-67
2022/07/08 01:15:52;;;;;;;;;;;;;;;15.93;97.16;99571.31;1801290;79;20193;-67
2022/07/08 01:18:20;;;;;;;;;;;;;;;15.83;97.85;99569.27;1760772;81;20144;-67
2022/07/08 01:20:47;;;;;;;;;;;;;;;15.80;98.38;99569.96;1760994;81;21219;-67
2022/07/08 01:23:14;;;;;;;;;;;;;;;15.81;98.98;99569.38;1761151;81;20155;-67
2022/07/08 01:25:40;;;;;;;;;;;;;;;15.82;99.32;99563.50;1760892;81;20081;-67
2022/07/08 01:28:06;;;;;;;;;;;;;;;15.84;99.77;99559.80;1761122;81;20080;-67
2022/07/08 01:30:33;;;;;;;;;;;;;;;15.87;99.98;99559.68;1761137;81;20108;-67
2022/07/08 01:33:01;;;;;;;;;;;;;;;15.89;100.00;99558.75;1761247;81;20534;-67
2022/07/08 01:35:28;;;;;;;;;;;;;;;15.92;100.00;99562.78;1761019;81;20093;-67
2022/07/08 01:37:54;;;;;;;;;;;;;;;15.93;99.80;99568.55;1760812;81;20188;-67
2022/07/08 01:40:20;;;;;;;;;;;;;;;15.93;99.54;99571.31;1760582;81;20156;-67
2022/07/08 01:42:47;;;;;;;;;;;;;;;15.94;99.36;99566.81;1760810;81;20435;-67
2022/07/08 01:45:15;;;;;;;;;;;;;;;15.98;99.15;99572.45;1761039;81;21277;-67
2022/07/08 01:47:43;;;;;;;;;;;;;;;16.00;98.96;99569.56;1760772;81;20470;-67
2022/07/08 01:50:09;;;;;;;;;;;;;;;16.05;98.83;99569.89;1770594;80;20110;-67
2022/07/08 01:52:37;;;;;;;;;;;;;;;16.09;98.68;99565.27;1795164;80;20113;-67
2022/07/08 01:55:04;;;;;;;;;;;;;;;16.15;98.36;99570.20;1795310;80;20090;-67
2022/07/08 01:57:31;;;;;;;;;;;;;;;16.18;98.04;99567.28;1795342;80;21161;-67
2022/07/08 01:59:58;;;;;;;;;;;;;;;16.23;97.67;99573.95;1795205;80;20086;-67
2022/07/08 02:02:24;;;;;;;;;;;;;;;16.23;97.45;99575.34;1795058;80;20097;-67
2022/07/08 02:04:51;;;;;;;;;;;;;;;16.24;97.19;99568.64;1794917;80;20412;-67
2022/07/08 02:07:17;;;;;;;;;;;;;;;16.27;96.98;99572.09;1795333;80;20113;-67
2022/07/08 02:09:45;;;;;;;;;;;;;;;16.27;96.78;99571.28;1795351;80;22356;-67
2022/07/08 02:12:23;;;;;;;;;;;;;;;16.28;96.70;99566.78;1795239;80;20090;-67
2022/07/08 02:15:07;;;;;;;;;;;;;;;16.27;96.48;99564.36;1761329;80;20417;-67
2022/07/08 02:17:38;;;;;;;;;;;;;;;16.27;96.31;99568.52;1783390;80;20078;-67
2022/07/08 02:20:13;;;;;;;;;;;;;;;16.23;96.26;99567.03;1778308;80;20145;-67
2022/07/08 02:22:40;;;;;;;;;;;;;;;16.20;96.30;99569.12;1784101;79;21100;-67
2022/07/08 02:25:13;;;;;;;;;;;;;;;16.19;96.42;99567.50;1784035;80;20418;-67
2022/07/08 02:27:43;;;;;;;;;;;;;;;16.18;96.50;99561.74;1783663;80;20082;-67
2022/07/08 02:30:11;;;;;;;;;;;;;;;16.18;96.52;99562.55;1783618;80;20094;-67
2022/07/08 02:32:43;;;;;;;;;;;;;;;16.18;96.62;99563.93;1783602;80;20070;-67
2022/07/08 02:35:13;;;;;;;;;;;;;;;16.19;96.51;99568.31;1783570;80;21239;-67
2022/07/08 02:37:41;;;;;;;;;;;;;;;16.16;96.62;99567.66;1783317;80;20090;-67
2022/07/08 02:40:14;;;;;;;;;;;;;;;16.16;96.59;99569.63;1783567;80;20079;-67
2022/07/08 02:42:48;;;;;;;;;;;;;;;16.16;96.68;99577.94;1782907;80;20421;-67
2022/07/08 02:45:15;;;;;;;;;;;;;;;16.16;96.87;99580.70;1783578;80;20079;-67
2022/07/08 02:47:49;;;;;;;;;;;;;;;16.14;96.95;99581.05;1783683;80;21148;-67
2022/07/08 02:50:15;;;;;;;;;;;;;;;16.16;96.93;99579.31;1783415;80;20648;-67
2022/07/08 02:52:48;;;;;;;;;;;;;;;16.20;96.84;99578.81;1782778;80;20417;-67
2022/07/08 02:55:15;;;;;;;;;;;;;;;16.24;96.78;99574.17;1783450;80;20143;-67
2022/07/08 02:57:44;;;;;;;;;;;;;;;16.26;96.66;99578.78;1783201;80;20130;-67
2022/07/08 03:00:18;;;;;;;;;;;;;;;16.30;96.60;99582.46;1778638;80;20110;-67
2022/07/08 03:02:48;;;;;;;;;;;;;;;16.32;96.52;99585.69;1752516;80;20102;-67
2022/07/08 03:05:30;;;;;;;;;;;;;;;16.35;96.42;99580.83;1778764;80;20425;-67
2022/07/08 03:07:47;;;;;;;;;;;;;;;16.39;96.15;99578.96;1779302;80;20164;-67
2022/07/08 03:10:18;;;;;;;;;;;;;;;16.44;95.88;99581.48;1783696;80;20114;-67
2022/07/08 03:12:47;;;;;;;;;;;;;;;16.50;95.51;99582.83;1783155;80;21166;-67
2022/07/08 03:15:15;;;;;;;;;;;;;;;16.56;95.23;99588.12;1783161;80;20181;-67
2022/07/08 03:17:49;;;;;;;;;;;;;;;16.61;95.11;99587.86;1783173;80;20409;-67
2022/07/08 03:20:14;;;;;;;;;;;;;;;16.63;94.83;99596.05;1782805;80;20108;-67
2022/07/08 03:22:40;;;;;;;;;;;;;;;16.66;94.68;99598.14;1783444;80;20436;-67
2022/07/08 03:25:14;;;;;;;;;;;;;;;16.69;94.41;99591.89;1753036;80;20106;-67
2022/07/08 03:27:48;;;;;;;;;;;;;;;16.77;94.24;99596.44;1783146;80;20079;-67
2022/07/08 03:30:11;;;;;;;;;;;;;;;16.83;93.12;99599.75;1783351;80;20394;-67
2022/07/08 03:32:43;;;;;;;;;;;;;;;16.88;92.85;99602.84;1777489;80;20994;-68
2022/07/08 03:35:10;;;;;;;;;;;;;;;16.91;92.70;99605.70;1783612;80;20078;-67
2022/07/08 03:37:44;;;;;;;;;;;;;;;16.97;92.48;99605.67;1783300;80;21177;-67
2022/07/08 03:43:00;;;;;;;;;;;;;;;17.05;92.52;99609.43;1783572;80;20405;-67
2022/07/08 03:45:33;;;;;;;;;;;;;;;17.08;92.26;99611.48;1783414;80;20438;-67
2022/07/08 03:48:00;;;;;;;;;;;;;;;17.09;91.92;99611.13;1783154;80;20091;-67
2022/07/08 03:50:39;;;;;;;;;;;;;;;17.13;91.62;99611.22;1752766;80;20607;-67
2022/07/08 03:53:05;;;;;;;;;;;;;;;17.18;90.69;99607.38;1753025;80;20086;-67
2022/07/08 03:55:44;;;;;;;;;;;;;;;17.22;90.31;99605.50;1778714;80;20090;-67
2022/07/08 03:58:07;;;;;;;;;;;;;;;17.26;89.95;99607.78;1781585;80;20421;-68
2022/07/08 04:00:33;;;;;;;;;;;;;;;17.30;89.68;99612.84;1782827;80;20068;-67
2022/07/08 04:03:08;;;;;;;;;;;;;;;17.34;89.16;99609.53;1782537;80;21189;-67
2022/07/08 04:05:51;;;;;;;;;;;;;;;17.37;88.81;99608.23;1782692;80;20409;-67
2022/07/08 04:08:06;;;;;;;;;;;;;;;17.40;88.34;99603.36;1780607;80;20099;-67
2022/07/08 04:10:34;;;;;;;;;;;;;;;17.42;88.05;99604.38;1782757;80;20429;-67
2022/07/08 04:13:05;;;;;;;;;;;;;;;17.45;87.82;99609.21;1778436;80;20146;-68
2022/07/08 04:15:34;;;;;;;;;;;;;;;17.50;87.24;99611.72;1785948;80;21203;-67
2022/07/08 04:18:07;;;;;;;;;;;;;;;17.50;86.88;99612.52;1789084;80;20117;-67
2022/07/08 04:20:38;;;;;;;;;;;;;;;17.55;86.62;99614.80;1789085;80;20086;-68
2022/07/08 04:23:07;;;;;;;;;;;;;;;17.57;85.44;99616.05;1789098;80;20090;-67
2022/07/08 04:25:49;;;;;;;;;;;;;;;17.57;85.49;99614.66;1789164;80;20078;-67
2022/07/08 04:28:06;;;;;;;;;;;;;;;17.61;85.57;99617.52;1785932;80;21277;-67
2022/07/08 04:30:36;;;;;;;;;;;;;;;17.64;85.13;99616.22;1789121;80;20477;-67
2022/07/08 04:33:09;;;;;;;;;;;;;;;17.65;84.89;99611.47;1788869;80;20400;-68
2022/07/08 04:35:37;;;;;;;;;;;;;;;17.67;84.49;99608.58;1789266;80;20136;-67
2022/07/08 04:38:08;;;;;;;;;;;;;;;17.69;84.42;99613.78;1789094;80;20110;-67
2022/07/08 04:40:37;;;;;;;;;;;;;;;17.71;84.82;99620.58;1788904;80;21174;-67
2022/07/08 04:43:12;;;;;;;;;;;;;;;17.74;85.31;99625.41;1785133;80;20113;-67
2022/07/08 04:45:42;;;;;;;;;;;;;;;17.76;84.84;99622.27;1760562;80;20405;-69
2022/07/08 04:48:08;;;;;;;;;;;;;;;17.78;85.21;99620.74;1760744;80;20416;-68
2022/07/08 04:50:40;;;;;;;;;;;;;;;17.81;85.40;99628.35;1786237;80;20086;-68
2022/07/08 04:53:09;;;;;;;;;;;;;;;17.78;85.13;99633.23;1787824;80;21167;-68
2022/07/08 04:55:35;;;;;;;;;;;;;;;17.78;85.08;99631.05;1780299;80;20093;-71
2022/07/08 04:58:05;;;;;;;;;;;;;;;17.78;85.28;99634.63;1748210;80;20150;-71
2022/07/08 05:00:35;;;;;;;;;;;;;;;17.83;85.23;99635.52;1737593;82;20191;-71
2022/07/08 05:03:01;;;;;;;;;;;;;;;17.86;85.16;99630.63;1692284;85;20121;-70
2022/07/08 05:05:34;;;;;;;;;;;;;;;17.86;85.31;99623.68;1707252;84;21129;-70
2022/07/08 05:08:06;;;;;;;;;;;;;;;17.88;85.73;99618.57;1687099;84;20149;-70
2022/07/08 05:10:37;;;;;;;;;;;;;;;17.90;85.38;99609.30;1706905;83;20085;-71
2022/07/08 05:13:09;;;;;;;;;;;;;;;17.89;85.20;99605.71;1708402;82;20146;-72
2022/07/08 05:15:42;;;;;;;;;;;;;;;17.86;85.36;99616.73;1729410;82;20099;-70
2022/07/08 05:18:08;;;;;;;;;;;;;;;17.80;85.91;99628.13;1732897;82;21088;-71
2022/07/08 05:20:37;;;;;;;;;;;;;;;17.76;86.61;99632.80;1710039;82;20439;-70
2022/07/08 05:23:08;;;;;;;;;;;;;;;17.73;87.40;99638.27;1704230;84;20121;-71
2022/07/08 05:25:40;;;;;;;;;;;;;;;17.71;87.77;99631.69;1685504;84;20424;-71
2022/07/08 05:28:21;;;;;;;;;;;;;;;17.78;88.56;99627.69;1703887;84;20092;-70
2022/07/08 05:30:40;;;;;;;;;;;;;;;17.90;88.86;99617.63;1699982;84;21192;-69
2022/07/08 05:33:10;;;;;;;;;;;;;;;18.00;88.19;99610.08;1703602;84;20113;-70
2022/07/08 05:35:43;;;;;;;;;;;;;;;18.00;88.00;99605.91;1704031;84;20089;-77
2022/07/08 05:38:18;;;;;;;;;;;;;;;17.96;87.76;99607.81;1710196;83;20137;-76
2022/07/08 05:40:51;;;;;;;;;;;;;;;17.92;87.58;99608.31;1731407;82;20169;-74
2022/07/08 05:43:16;;;;;;;;;;;;;;;17.96;87.24;99616.95;1731061;83;21140;-77
2022/07/08 05:45:51;;;;;;;;;;;;;;;18.00;87.36;99615.05;1733008;82;20114;-76
2022/07/08 05:48:15;;;;;;;;;;;;;;;18.08;87.67;99625.73;1732699;82;20106;-76
2022/07/08 05:50:46;;;;;;;;;;;;;;;18.16;87.29;99616.39;1711914;83;20457;-75
2022/07/08 05:53:17;;;;;;;;;;;;;;;18.22;87.71;99615.52;1733080;83;20154;-77
2022/07/08 05:55:56;;;;;;;;;;;;;;;18.29;87.57;99618.45;1732455;82;21262;-79
2022/07/08 05:58:22;;;;;;;;;;;;;;;18.31;87.39;99616.91;1727494;82;20094;-76
2022/07/08 06:00:51;;;;;;;;;;;;;;;18.33;87.09;99613.77;1733385;83;20127;-76
2022/07/08 06:03:20;;;;;;;;;;;;;;;18.39;87.45;99608.94;1733081;82;20090;-75
2022/07/08 06:05:56;;;;;;;;;;;;;;;18.44;87.30;99611.42;1737895;82;20122;-75
2022/07/08 06:08:25;;;;;;;;;;;;;;;18.46;87.12;99608.28;1733601;83;21175;-76
2022/07/08 06:10:53;;;;;;;;;;;;;;;18.46;86.60;99604.11;1733564;83;20086;-79
2022/07/08 06:13:21;;;;;;;;;;;;;;;18.47;86.65;99605.13;1732989;82;20158;-76
2022/07/08 06:15:51;;;;;;;;;;;;;;;18.49;86.47;99603.34;1733307;82;20185;-75
2022/07/08 06:18:26;;;;;;;;;;;;;;;18.52;86.30;99602.61;1732728;82;20414;-75
2022/07/08 06:20:54;;;;;;;;;;;;;;;18.52;85.65;99599.83;1733671;82;23528;-76
2022/07/08 06:23:29;;;;;;;;;;;;;;;18.54;85.60;99592.52;1738094;82;20450;-77
2022/07/08 06:25:58;;;;;;;;;;;;;;;18.59;85.19;99590.83;1733601;83;20441;-75
2022/07/08 06:28:25;;;;;;;;;;;;;;;18.64;84.64;99582.21;1732796;83;20146;-74
2022/07/08 06:30:55;;;;;;;;;;;;;;;18.68;84.46;99588.06;1732772;82;20095;-75
2022/07/08 06:33:28;;;;;;;;;;;;;;;18.73;83.96;99578.61;1733226;82;22026;-76
2022/07/08 06:35:54;;;;;;;;;;;;;;;18.77;83.97;99569.75;1732494;82;20123;-75
2022/07/08 06:38:22;;;;;;;;;;;;;;;18.81;83.43;99572.01;1715385;83;20504;-74
2022/07/08 06:40:55;;;;;;;;;;;;;;;18.81;83.83;99567.84;1732694;82;20122;-75
2022/07/08 06:43:24;;;;;;;;;;;;;;;18.93;84.39;99564.07;1732642;82;20422;-74
2022/07/08 06:45:52;;;;;;;;;;;;;;;19.13;83.69;99562.20;1714437;83;20105;-77
2022/07/08 06:48:22;;;;;;;;;;;;;;;19.37;83.11;99556.02;1733462;82;20071;-74
2022/07/08 06:50:55;;;;;;;;;;;;;;;19.57;81.05;99549.20;1732453;82;20206;-74
2022/07/08 06:53:25;;;;;;;;;;;;;;;19.75;80.07;99544.66;1728764;82;20094;-76
2022/07/08 06:56:00;;;;;;;;;;;;;;;19.84;79.45;99538.81;1733528;82;20107;-76
2022/07/08 06:58:33;;;;;;;;;;;;;;;19.96;79.29;99539.16;1713532;83;20111;-74
2022/07/08 07:01:02;;;;;;;;;;;;;;;20.06;78.03;99530.14;1733378;82;20119;-76
2022/07/08 07:03:32;;;;;;;;;;;;;;;20.14;77.71;99542.97;1732262;83;20110;-75
2022/07/08 07:06:07;;;;;;;;;;;;;;;20.16;77.57;99533.64;1713691;83;20134;-77
2022/07/08 07:08:33;;;;;;;;;;;;;;;20.23;77.30;99532.89;1730443;82;20140;-73
2022/07/08 07:11:04;;;;;;;;;;;;;;;20.39;77.41;99533.52;1725718;83;21254;-74
2022/07/08 07:13:35;;;;;;;;;;;;;;;20.57;76.51;99531.72;1731598;82;20118;-74
2022/07/08 07:16:10;;;;;;;;;;;;;;;20.73;75.71;99544.83;1711509;82;20126;-74
2022/07/08 07:18:35;;;;;;;;;;;;;;;20.82;74.77;99544.48;1732032;82;20071;-73
2022/07/08 07:21:04;;;;;;;;;;;;;;;20.82;73.10;99554.25;1733253;83;20175;-73
2022/07/08 07:23:32;;;;;;;;;;;;;;;20.77;72.97;99546.26;1732999;82;21033;-74
2022/07/08 07:26:00;;;;;;;;;;;;;;;20.71;72.14;99558.95;1733423;83;20163;-73
2022/07/08 07:28:40;;;;;;;;;;;;;;;20.71;72.76;99554.77;1715118;83;20103;-73
2022/07/08 07:31:04;;;;;;;;;;;;;;;20.76;73.54;99565.58;1732602;82;20082;-73
2022/07/08 07:33:32;;;;;;;;;;;;;;;20.81;73.41;99563.80;1733729;82;20082;-74
2022/07/08 07:36:02;;;;;;;;;;;;;;;20.87;72.83;99565.06;1738028;82;20083;-74
2022/07/08 07:38:29;;;;;;;;;;;;;;;20.93;72.47;99565.52;1728937;82;20127;-77
2022/07/08 07:40:57;;;;;;;;;;;;;;;21.02;72.66;99571.58;1732922;82;20107;-75
2022/07/08 07:43:28;;;;;;;;;;;;;;;21.15;72.71;99570.09;1733131;82;20202;-73
2022/07/08 07:45:58;;;;;;;;;;;;;;;21.36;72.82;99573.69;1727717;82;20115;-73
2022/07/08 07:48:27;;;;;;;;;;;;;;;21.58;72.75;99573.22;1733537;82;21146;-73
2022/07/08 07:50:52;;;;;;;;;;;;;;;21.78;70.25;99566.16;1732813;82;20406;-73
2022/07/08 07:53:27;;;;;;;;;;;;;;;21.89;69.32;99567.63;1732499;82;20146;-73
2022/07/08 07:55:54;;;;;;;;;;;;;;;22.01;69.12;99565.30;1732510;82;20123;-75
2022/07/08 07:58:26;;;;;;;;;;;;;;;22.10;67.51;99555.16;1729077;82;20421;-73
2022/07/08 08:01:00;;;;;;;;;;;;;;;22.19;67.79;99556.98;1713882;82;20170;-73
2022/07/08 08:03:34;;;;;;;;;;;;;;;22.32;66.65;99549.84;1710030;82;20153;-75
2022/07/08 08:05:54;;;;;;;;;;;;;;;22.47;66.35;99558.28;1731321;82;20103;-73
2022/07/08 08:08:27;;;;;;;;;;;;;;;22.70;65.62;99551.13;1738123;82;20163;-74
2022/07/08 08:11:00;;;;;;;;;;;;;;;22.90;65.69;99550.78;1725655;82;20082;-73
2022/07/08 08:13:32;;;;;;;;;;;;;;;23.12;63.57;99556.56;1733073;82;21498;-74
2022/07/08 08:16:05;;;;;;;;;;;;;;;23.26;60.71;99570.57;1734611;82;20111;-74
2022/07/08 08:18:38;;;;;;;;;;;;;;;23.26;59.22;99552.97;1720508;82;20131;-73
2022/07/08 08:21:06;;;;;;;;;;;;;;;23.32;60.09;99552.16;1742785;82;20083;-76
2022/07/08 08:23:34;;;;;;;;;;;;;;;23.51;59.77;99549.55;1742760;82;20119;-73
2022/07/08 08:26:08;;;;;;;;;;;;;;;23.81;59.38;99552.48;1715957;82;21260;-73
2022/07/08 08:28:37;;;;;;;;;;;;;;;24.09;58.36;99551.00;1742316;82;20127;-74
2022/07/08 08:31:16;;;;;;;;;;;;;;;24.40;54.88;99552.66;1742185;82;20143;-74
2022/07/08 08:33:52;;;;;;;;;;;;;;;24.62;54.41;99544.33;1742978;81;20087;-74
2022/07/08 08:36:16;;;;;;;;;;;;;;;24.80;53.34;99546.42;1741966;82;20099;-75
2022/07/08 08:38:51;;;;;;;;;;;;;;;25.05;53.54;99541.22;1740470;82;21119;-75
2022/07/08 08:41:15;;;;;;;;;;;;;;;25.28;52.32;99548.45;1741920;82;20112;-74
2022/07/08 08:43:47;;;;;;;;;;;;;;;25.52;52.19;99543.79;1712673;82;20147;-77
2022/07/08 08:46:20;;;;;;;;;;;;;;;25.77;50.15;99541.55;1725747;82;20153;-74
2022/07/08 08:48:49;;;;;;;;;;;;;;;25.89;49.62;99545.23;1713097;84;20152;-76
2022/07/08 08:51:17;;;;;;;;;;;;;;;25.91;47.18;99549.83;1712566;83;21577;-78
2022/07/08 08:53:53;;;;;;;;;;;;;;;25.87;48.67;99549.68;1688465;84;20133;-83
2022/07/08 08:56:23;;;;;;;;;;;;;;;25.94;49.15;99551.00;1690160;84;20097;-79
2022/07/08 08:58:53;;;;;;;;;;;;;;;26.01;47.85;99559.33;1689936;84;20125;-71
2022/07/08 09:01:22;;;;;;;;;;;;;;;26.06;47.05;99557.46;1717360;82;20120;-72
2022/07/08 09:03:49;;;;;;;;;;;;;;;26.23;47.48;99555.66;1742012;82;21792;-69
2022/07/08 09:06:16;;;;;;;;;;;;;;;26.49;46.36;99560.56;1742017;81;20204;-81
2022/07/08 09:08:42;;;;;;;;;;;;;;;26.72;45.75;99554.19;1743855;82;20182;-73
2022/07/08 09:11:08;;;;;;;;;;;;;;;26.82;43.93;99558.86;1744325;81;20177;-68
2022/07/08 09:13:36;;;;;;;;;;;;;;;26.90;45.15;99557.53;1744168;81;20181;-69
2022/07/08 09:16:03;;;;;;;;;;;;;;;27.04;44.45;99550.91;1744107;81;21095;-70
2022/07/08 09:18:35;;;;;;;;;;;;;;;27.23;44.59;99561.44;1746094;82;20122;-84
2022/07/08 09:21:02;;;;;;;;;;;;;;;27.41;42.99;99551.27;1734023;82;20110;-73
2022/07/08 09:23:35;;;;;;;;;;;;;;;27.50;42.00;99552.92;1689153;83;20142;-79
2022/07/08 09:26:03;;;;;;;;;;;;;;;27.34;42.08;99549.98;1712758;83;20120;-80
2022/07/08 09:28:36;;;;;;;;;;;;;;;27.17;42.98;99553.28;1717552;83;21894;-77
2022/07/08 09:31:05;;;;;;;;;;;;;;;27.11;43.24;99547.19;1716698;83;20107;-74
2022/07/08 09:33:32;;;;;;;;;;;;;;;27.15;41.70;99545.87;1717911;83;20099;-72
2022/07/08 09:36:02;;;;;;;;;;;;;;;27.29;43.00;99544.84;1717059;82;20164;-77
2022/07/08 09:38:35;;;;;;;;;;;;;;;27.46;43.48;99542.94;1717185;82;20127;-69
2022/07/08 09:41:09;;;;;;;;;;;;;;;27.59;42.10;99547.55;1709536;83;22386;-69
2022/07/08 09:43:46;;;;;;;;;;;;;;;27.39;40.09;99548.08;1704845;83;20434;-70
2022/07/08 09:46:12;;;;;;;;;;;;;;;26.96;41.64;99554.45;1718351;83;20071;-74
2022/07/08 09:48:39;;;;;;;;;;;;;;;26.57;40.53;99553.59;1718026;83;20095;-73
2022/07/08 09:51:09;;;;;;;;;;;;;;;26.30;42.12;99556.97;1718083;83;20427;-74
2022/07/08 09:53:36;;;;;;;;;;;;;;;26.32;43.04;99560.19;1718000;83;21209;-77
2022/07/08 09:56:03;;;;;;;;;;;;;;;26.48;42.16;99561.79;1717842;83;20426;-71
2022/07/08 09:58:31;;;;;;;;;;;;;;;26.58;42.61;99554.39;1718331;83;20442;-70
2022/07/08 10:00:58;;;;;;;;;;;;;;;26.56;42.78;99558.27;1718017;83;20120;-71
2022/07/08 10:03:24;;;;;;;;;;;;;;;26.63;43.19;99556.12;1717832;83;20254;-70
2022/07/08 10:05:50;;;;;;;;;;;;;;;26.88;41.70;99557.16;1717755;83;21137;-70
2022/07/08 10:08:18;;;;;;;;;;;;;;;27.12;40.85;99555.20;1717922;83;20084;-71
2022/07/08 10:10:48;;;;;;;;;;;;;;;27.21;41.04;99551.20;1717901;82;20095;-71
2022/07/08 10:13:18;;;;;;;;;;;;;;;27.30;41.38;99548.63;1718089;83;20084;-74
2022/07/08 10:15:44;;;;;;;;;;;;;;;27.50;41.58;99540.23;1718060;83;20115;-74
2022/07/08 10:18:26;;;;;;;;;;;;;;;27.77;40.02;99540.14;1717895;83;21989;-75
2022/07/08 10:20:54;;;;;;;;;;;;;;;27.90;39.37;99541.70;1717594;83;20096;-75
2022/07/08 10:23:36;;;;;;;;;;;;;;;27.78;37.05;99536.70;1718269;82;20171;-75
2022/07/08 10:26:02;;;;;;;;;;;;;;;27.60;38.32;99544.91;1718064;82;20084;-75
2022/07/08 10:28:37;;;;;;;;;;;;;;;27.49;39.42;99533.62;1717040;83;20179;-74
2022/07/08 10:31:03;;;;;;;;;;;;;;;27.57;39.46;99541.52;1717582;83;21193;-71
2022/07/08 10:33:30;;;;;;;;;;;;;;;27.70;38.79;99538.09;1709175;83;20110;-71
2022/07/08 10:36:08;;;;;;;;;;;;;;;27.67;39.09;99533.31;1718017;83;20186;-71
2022/07/08 10:38:37;;;;;;;;;;;;;;;27.54;38.87;99539.55;1716636;83;20131;-71
2022/07/08 10:41:09;;;;;;;;;;;;;;;27.46;39.05;99542.94;1718525;83;20158;-71
2022/07/08 10:43:37;;;;;;;;;;;;;;;27.32;39.57;99546.80;1718041;82;21252;-71
2022/07/08 10:46:18;;;;;;;;;;;;;;;27.00;39.70;99540.31;1717539;83;20414;-74
2022/07/08 10:48:48;;;;;;;;;;;;;;;26.72;40.01;99543.53;1717938;83;20143;-73
2022/07/08 10:51:22;;;;;;;;;;;;;;;26.46;40.48;99547.95;1716190;83;20122;-78
2022/07/08 10:53:53;;;;;;;;;;;;;;;26.38;40.59;99538.01;1717571;83;20115;-80
2022/07/08 10:56:48;;;;;;;;;;;;;;;26.28;41.10;99543.33;1718466;83;21136;-71
2022/07/08 10:59:20;;;;;;;;;;;;;;;26.17;40.58;99540.45;1717974;83;20151;-71
2022/07/08 11:01:51;;;;;;;;;;;;;;;26.05;40.86;99542.41;1707179;83;20123;-72
2022/07/08 11:04:37;;;;;;;;;;;;;;;26.00;40.68;99540.86;1689263;85;20171;-74
2022/07/08 11:07:24;;;;;;;;;;;;;;;26.11;40.38;99539.33;1689552;85;20085;-74
2022/07/08 11:09:54;;;;;;;;;;;;;;;26.35;40.58;99540.27;1689308;85;20085;-75
2022/07/08 11:12:30;;;;;;;;;;;;;;;26.46;40.39;99528.25;1689294;85;20098;-77
2022/07/08 11:14:58;;;;;;;;;;;;;;;26.72;39.68;99526.02;1675127;84;20196;-77
2022/07/08 11:17:26;;;;;;;;;;;;;;;27.05;39.16;99527.77;1685304;85;20098;-75
2022/07/08 11:19:53;;;;;;;;;;;;;;;27.39;38.29;99528.97;1714941;83;20132;-76
2022/07/08 11:22:20;;;;;;;;;;;;;;;27.68;38.12;99520.20;1714915;83;21866;-74
2022/07/08 11:24:47;;;;;;;;;;;;;;;28.02;38.26;99516.28;1715089;82;20173;-72
2022/07/08 11:27:15;;;;;;;;;;;;;;;28.39;36.91;99508.03;1714937;83;20112;-71
2022/07/08 11:29:49;;;;;;;;;;;;;;;28.73;37.75;99514.72;1714851;83;20112;-75
2022/07/08 11:32:20;;;;;;;;;;;;;;;28.96;35.62;99493.98;1715128;83;20113;-75
2022/07/08 11:34:47;;;;;;;;;;;;;;;29.06;37.09;99516.33;1715022;83;21088;-74
2022/07/08 11:37:14;;;;;;;;;;;;;;;29.27;36.64;99517.03;1714803;83;20113;-74
2022/07/08 11:39:41;;;;;;;;;;;;;;;29.35;35.78;99511.36;1714756;83;20459;-78
2022/07/08 11:42:09;;;;;;;;;;;;;;;29.25;35.99;99520.30;1714432;83;20112;-76
2022/07/08 11:44:35;;;;;;;;;;;;;;;29.17;35.39;99516.06;1714640;83;20507;-75
2022/07/08 11:47:04;;;;;;;;;;;;;;;29.06;34.93;99516.95;1714773;83;20463;-78
2022/07/08 11:49:30;;;;;;;;;;;;;;;28.81;35.43;99516.94;1714990;83;20117;-72
2022/07/08 11:51:58;;;;;;;;;;;;;;;28.59;35.26;99518.05;1714892;83;20132;-73
2022/07/08 11:54:27;;;;;;;;;;;;;;;28.39;34.78;99519.32;1715124;83;20590;-72
2022/07/08 11:56:54;;;;;;;;;;;;;;;28.25;36.58;99518.43;1714736;83;20452;-75
2022/07/08 11:59:24;;;;;;;;;;;;;;;28.12;36.71;99518.88;1715171;83;21102;-72
2022/07/08 12:01:55;;;;;;;;;;;;;;;28.08;36.48;99523.00;1715063;82;20116;-71
2022/07/08 12:04:22;;;;;;;;;;;;;;;28.19;36.61;99524.99;1715003;83;20447;-71
2022/07/08 12:06:50;;;;;;;;;;;;;;;28.32;36.31;99521.69;1714984;83;20112;-74
2022/07/08 12:09:17;;;;;;;;;;;;;;;28.49;36.93;99523.94;1714899;83;20479;-72
2022/07/08 12:11:45;;;;;;;;;;;;;;;28.58;36.40;99512.84;1714929;83;20592;-72
2022/07/08 12:14:13;;;;;;;;;;;;;;;28.56;36.49;99512.48;1714825;82;20116;-73
2022/07/08 12:16:49;;;;;;;;;;;;;;;28.59;35.55;99506.75;1714893;83;20116;-72
2022/07/08 12:19:34;;;;;;;;;;;;;;;28.59;35.66;99517.25;1716315;83;20204;-73
2022/07/08 12:22:05;;;;;;;;;;;;;;;28.72;37.10;99506.86;1716335;83;20176;-73
2022/07/08 12:24:37;;;;;;;;;;;;;;;29.05;34.62;99509.09;1716499;83;21143;-74
2022/07/08 12:27:06;;;;;;;;;;;;;;;29.32;34.75;99501.73;1716782;83;20128;-73
2022/07/08 12:29:36;;;;;;;;;;;;;;;29.47;34.76;99503.56;1716430;83;20125;-73
2022/07/08 12:32:06;;;;;;;;;;;;;;;29.56;34.70;99510.17;1734379;82;20122;-74
2022/07/08 12:34:33;;;;;;;;;;;;;;;29.70;34.39;99504.75;1716601;83;20156;-72
2022/07/08 12:37:14;;;;;;;;;;;;;;;29.81;34.03;99507.28;1716640;83;21095;-73
2022/07/08 12:39:40;;;;;;;;;;;;;;;29.99;34.22;99502.53;1716688;83;20112;-72
2022/07/08 12:42:07;;;;;;;;;;;;;;;30.16;33.36;99503.42;1716720;83;20120;-72
2022/07/08 12:44:44;;;;;;;;;;;;;;;30.12;32.83;99503.36;1716692;83;20476;-74
2022/07/08 12:47:11;;;;;;;;;;;;;;;30.03;32.45;99506.88;1688530;83;20112;-75
2022/07/08 12:49:39;;;;;;;;;;;;;;;29.83;32.66;99504.17;1716653;83;22134;-75
2022/07/08 12:52:06;;;;;;;;;;;;;;;29.70;32.97;99501.12;1716525;83;20192;-74
2022/07/08 12:54:33;;;;;;;;;;;;;;;29.47;33.30;99498.70;1716546;83;20112;-72
2022/07/08 12:57:00;;;;;;;;;;;;;;;29.10;32.87;99496.45;1716745;83;20200;-71
2022/07/08 12:59:27;;;;;;;;;;;;;;;28.81;33.18;99502.02;1716690;83;20120;-72
2022/07/08 13:01:54;;;;;;;;;;;;;;;28.47;33.54;99510.88;1716751;83;21099;-72
2022/07/08 13:04:22;;;;;;;;;;;;;;;28.05;33.09;99503.51;1716568;83;20128;-72